Time;durP1;ratioP1;P1;durP2;ratioP2;P2;SDS_P1;SDS_P2;PMS_P1;PMS_P2;Temp;Humidity;BMP_temperature;BMP_pressure;BME280_temperature;BME280_humidity;BME280_pressure;Samples;Min_cycle;Max_cycle;Signal;HPM_P1;HPM_P2
2022/12/04 00:02:02;;;;;;;121.13;18.15;;;;;;;;;;5017304;28;20026;-55
2022/12/04 00:04:29;;;;;;;123.63;17.50;;;;;;;;;;5024585;28;20490;-57
2022/12/04 00:06:56;;;;;;;147.90;19.73;;;;;;;;;;5025439;28;20057;-56
2022/12/04 00:09:23;;;;;;;186.68;22.88;;;;;;;;;;5018877;28;20032;-58
2022/12/04 00:11:50;;;;;;;293.60;31.50;;;;;;;;;;5016534;28;20069;-57
2022/12/04 00:14:17;;;;;;;221.40;25.67;;;;;;;;;;5013087;28;20033;-57
2022/12/04 00:16:44;;;;;;;180.70;26.10;;;;;;;;;;5013353;28;20510;-57
2022/12/04 00:19:11;;;;;;;271.70;31.92;;;;;;;;;;5013914;28;20487;-55
2022/12/04 00:21:38;;;;;;;615.22;62.75;;;;;;;;;;5014821;28;20394;-56
2022/12/04 00:24:05;;;;;;;471.73;49.80;;;;;;;;;;5017611;28;20034;-53
2022/12/04 00:26:32;;;;;;;618.70;62.63;;;;;;;;;;5016417;28;20112;-57
2022/12/04 00:29:00;;;;;;;634.50;65.38;;;;;;;;;;5020625;28;20393;-56
2022/12/04 00:31:28;;;;;;;634.00;68.07;;;;;;;;;;5017279;28;20036;-59
2022/12/04 00:33:55;;;;;;;696.85;75.90;;;;;;;;;;5025613;28;20037;-59
2022/12/04 00:36:23;;;;;;;720.53;74.90;;;;;;;;;;5022433;28;20831;-58
2022/12/04 00:38:51;;;;;;;610.28;67.03;;;;;;;;;;5019312;28;20032;-58
2022/12/04 00:41:19;;;;;;;500.50;55.88;;;;;;;;;;5017056;28;20041;-58
2022/12/04 00:43:46;;;;;;;531.92;58.63;;;;;;;;;;5015090;28;20055;-58
2022/12/04 00:46:14;;;;;;;366.13;46.15;;;;;;;;;;5035833;28;20063;-58
2022/12/04 00:48:41;;;;;;;406.20;44.95;;;;;;;;;;5025946;28;20041;-58
2022/12/04 00:51:10;;;;;;;378.48;48.80;;;;;;;;;;5024034;28;20045;-59
2022/12/04 00:53:38;;;;;;;378.55;50.35;;;;;;;;;;5024299;28;20029;-59
2022/12/04 00:56:06;;;;;;;357.20;46.50;;;;;;;;;;5025642;28;20026;-58
2022/12/04 00:58:33;;;;;;;311.73;43.03;;;;;;;;;;5025696;28;20795;-59
2022/12/04 01:01:04;;;;;;;308.83;41.92;;;;;;;;;;5014511;28;20091;-58
2022/12/04 01:03:31;;;;;;;327.17;45.47;;;;;;;;;;5015049;28;20030;-59
2022/12/04 01:05:58;;;;;;;466.98;61.10;;;;;;;;;;5014830;28;20538;-58
2022/12/04 01:08:26;;;;;;;508.42;61.17;;;;;;;;;;5015456;28;20117;-58
2022/12/04 01:10:53;;;;;;;488.55;66.82;;;;;;;;;;5015107;28;20025;-58
2022/12/04 01:13:20;;;;;;;480.13;71.97;;;;;;;;;;5015421;28;20111;-58
2022/12/04 01:15:48;;;;;;;435.67;64.97;;;;;;;;;;5015458;28;20073;-57
2022/12/04 01:18:15;;;;;;;413.58;61.75;;;;;;;;;;5015188;28;20455;-58
2022/12/04 01:20:52;;;;;;;371.35;56.90;;;;;;;;;;5015378;28;20037;-58
2022/12/04 01:23:19;;;;;;;336.55;52.53;;;;;;;;;;5015180;28;20044;-58
2022/12/04 01:25:56;;;;;;;280.23;43.55;;;;;;;;;;5015086;28;20483;-58
2022/12/04 01:28:24;;;;;;;269.13;41.67;;;;;;;;;;5015099;28;20033;-58
2022/12/04 01:31:04;;;;;;;253.13;40.60;;;;;;;;;;5015191;28;20080;-58
2022/12/04 01:33:32;;;;;;;244.48;39.08;;;;;;;;;;5014995;28;20030;-58
2022/12/04 01:36:00;;;;;;;293.80;43.70;;;;;;;;;;5015078;28;20119;-58
2022/12/04 01:38:27;;;;;;;318.85;46.72;;;;;;;;;;5014963;28;20038;-58
2022/12/04 01:40:54;;;;;;;329.48;46.83;;;;;;;;;;5015074;28;20034;-58
2022/12/04 01:43:21;;;;;;;287.48;44.70;;;;;;;;;;5014944;28;20045;-58
2022/12/04 01:45:55;;;;;;;286.58;44.97;;;;;;;;;;5013529;28;20406;-58
2022/12/04 01:48:26;;;;;;;269.65;44.28;;;;;;;;;;5014901;28;20052;-58
2022/12/04 01:50:55;;;;;;;264.15;46.58;;;;;;;;;;5014824;28;20069;-57
2022/12/04 01:53:22;;;;;;;269.17;47.65;;;;;;;;;;5014788;28;20112;-58
2022/12/04 01:55:49;;;;;;;241.57;48.15;;;;;;;;;;5014458;28;20038;-58
2022/12/04 01:58:17;;;;;;;255.30;50.63;;;;;;;;;;5014569;28;20036;-58
2022/12/04 02:00:45;;;;;;;278.83;53.45;;;;;;;;;;5014701;28;20022;-58
2022/12/04 02:03:13;;;;;;;238.00;48.72;;;;;;;;;;5014494;28;20066;-58
2022/12/04 02:05:40;;;;;;;226.88;46.72;;;;;;;;;;5014537;28;20045;-57
2022/12/04 02:08:07;;;;;;;255.38;47.38;;;;;;;;;;5014471;28;20025;-57
2022/12/04 02:10:43;;;;;;;235.35;46.35;;;;;;;;;;5014494;28;20080;-58
2022/12/04 02:13:17;;;;;;;244.18;45.90;;;;;;;;;;5014704;28;20128;-58
2022/12/04 02:15:53;;;;;;;235.77;46.00;;;;;;;;;;5014385;28;20026;-57
2022/12/04 02:18:30;;;;;;;249.18;48.33;;;;;;;;;;5014519;28;20513;-58
2022/12/04 02:21:14;;;;;;;253.63;45.90;;;;;;;;;;5014333;28;20030;-58
2022/12/04 02:23:59;;;;;;;243.20;45.22;;;;;;;;;;5014149;28;20042;-58
2022/12/04 02:26:44;;;;;;;226.75;46.65;;;;;;;;;;5014041;28;20058;-58
2022/12/04 02:29:31;;;;;;;208.25;44.08;;;;;;;;;;5014027;28;20030;-57
2022/12/04 02:32:02;;;;;;;232.63;47.25;;;;;;;;;;5013993;28;20033;-58
2022/12/04 02:34:32;;;;;;;238.05;52.17;;;;;;;;;;5014049;28;20032;-58
2022/12/04 02:37:02;;;;;;;241.80;62.75;;;;;;;;;;5013832;28;20097;-58
2022/12/04 02:39:42;;;;;;;249.43;67.10;;;;;;;;;;5013901;28;20065;-58
2022/12/04 02:42:15;;;;;;;256.98;63.65;;;;;;;;;;5013845;28;20034;-58
2022/12/04 02:44:45;;;;;;;244.10;62.05;;;;;;;;;;5013872;28;20103;-57
2022/12/04 02:47:13;;;;;;;222.63;55.63;;;;;;;;;;5013632;28;20065;-58
2022/12/04 02:49:56;;;;;;;205.32;53.15;;;;;;;;;;5013711;28;20084;-57
2022/12/04 02:52:28;;;;;;;196.48;51.45;;;;;;;;;;5013736;28;20454;-58
2022/12/04 02:54:57;;;;;;;185.98;43.50;;;;;;;;;;5013705;28;20113;-57
2022/12/04 02:57:28;;;;;;;195.30;43.13;;;;;;;;;;5013484;28;20792;-58
2022/12/04 02:59:56;;;;;;;194.73;50.30;;;;;;;;;;5012275;28;20456;-58
2022/12/04 03:02:26;;;;;;;173.13;44.92;;;;;;;;;;5013440;28;20472;-57
2022/12/04 03:04:56;;;;;;;163.18;46.78;;;;;;;;;;5013446;28;20030;-57
2022/12/04 03:07:30;;;;;;;172.25;44.78;;;;;;;;;;5012604;28;20522;-58
2022/12/04 03:10:00;;;;;;;192.93;42.45;;;;;;;;;;5013380;28;20065;-57
2022/12/04 03:12:27;;;;;;;144.63;36.75;;;;;;;;;;5013292;28;20041;-57
2022/12/04 03:15:01;;;;;;;136.75;35.45;;;;;;;;;;5013279;28;20465;-58
2022/12/04 03:17:33;;;;;;;155.13;39.15;;;;;;;;;;5013111;28;20044;-58
2022/12/04 03:20:00;;;;;;;;;;;;;;;;;;5013674;28;20488;-57
2022/12/04 03:22:27;;;;;;;149.35;36.85;;;;;;;;;;5013095;28;19940;-57
2022/12/04 03:24:56;;;;;;;141.10;37.05;;;;;;;;;;5013100;28;20030;-58
2022/12/04 03:27:32;;;;;;;141.07;35.88;;;;;;;;;;5012781;28;20050;-58
2022/12/04 03:29:59;;;;;;;149.25;33.45;;;;;;;;;;5013004;28;20076;-58
2022/12/04 03:32:33;;;;;;;128.43;32.25;;;;;;;;;;5013282;28;20046;-57
2022/12/04 03:35:08;;;;;;;124.95;30.55;;;;;;;;;;5013011;28;20034;-58
2022/12/04 03:37:49;;;;;;;135.73;30.52;;;;;;;;;;5012813;28;20029;-57
2022/12/04 03:40:42;;;;;;;124.55;31.27;;;;;;;;;;5012877;28;20034;-57
2022/12/04 03:43:29;;;;;;;160.10;31.98;;;;;;;;;;4996293;28;20407;-58
2022/12/04 03:45:59;;;;;;;160.77;30.48;;;;;;;;;;5012706;28;20025;-57
2022/12/04 03:48:38;;;;;;;152.15;30.98;;;;;;;;;;5012638;28;20113;-57
2022/12/04 03:51:12;;;;;;;152.90;30.15;;;;;;;;;;5012645;28;20042;-57
2022/12/04 03:53:41;;;;;;;120.63;26.95;;;;;;;;;;5012686;28;20092;-58
2022/12/04 03:56:22;;;;;;;141.85;26.45;;;;;;;;;;5012669;28;20026;-57
2022/12/04 03:58:51;;;;;;;132.50;27.65;;;;;;;;;;5012515;28;20041;-57
2022/12/04 04:01:21;;;;;;;125.75;25.35;;;;;;;;;;5012664;28;20049;-57
2022/12/04 04:03:52;;;;;;;158.02;27.95;;;;;;;;;;5012447;28;20057;-57
2022/12/04 04:06:23;;;;;;;152.77;26.30;;;;;;;;;;5012561;28;20026;-58
2022/12/04 04:08:52;;;;;;;143.68;24.98;;;;;;;;;;5012278;28;20026;-57
2022/12/04 04:11:19;;;;;;;157.55;25.85;;;;;;;;;;5012398;28;20411;-57
2022/12/04 04:24:57;;;;;;;245.50;28.13;;;;;;;;;;5012460;28;20072;-57
2022/12/04 04:27:24;;;;;;;218.80;29.48;;;;;;;;;;5012016;28;20050;-57
2022/12/04 04:29:52;;;;;;;213.73;29.63;;;;;;;;;;5012234;28;20022;-58
2022/12/04 04:32:25;;;;;;;225.15;30.20;;;;;;;;;;5012220;28;20029;-57
2022/12/04 04:34:52;;;;;;;213.18;29.92;;;;;;;;;;5012462;28;20365;-57
2022/12/04 04:37:21;;;;;;;245.20;29.63;;;;;;;;;;5012011;28;20030;-57
2022/12/04 04:39:54;;;;;;;223.68;30.00;;;;;;;;;;5012132;28;20161;-58
2022/12/04 04:42:35;;;;;;;193.80;27.55;;;;;;;;;;5012072;28;20032;-57
2022/12/04 04:45:17;;;;;;;156.45;24.65;;;;;;;;;;5012105;28;20081;-58
2022/12/04 04:47:43;;;;;;;;;;;;;;;;;;5011105;28;20479;-58
2022/12/04 04:50:11;;;;;;;164.82;24.20;;;;;;;;;;5012105;28;20378;-58
2022/12/04 04:52:41;;;;;;;154.85;23.50;;;;;;;;;;5012068;28;20026;-57
2022/12/04 04:55:08;;;;;;;159.52;24.20;;;;;;;;;;5012023;28;20044;-57
2022/12/04 04:57:36;;;;;;;169.02;24.15;;;;;;;;;;5011836;28;20388;-58
2022/12/04 05:00:10;;;;;;;138.25;23.40;;;;;;;;;;5011965;28;20119;-57
2022/12/04 05:02:37;;;;;;;153.27;22.77;;;;;;;;;;5011847;28;20034;-58
2022/12/04 05:05:06;;;;;;;147.88;23.92;;;;;;;;;;5011920;28;20030;-57
2022/12/04 05:07:33;;;;;;;225.82;28.88;;;;;;;;;;5011766;28;20398;-58
2022/12/04 05:10:00;;;;;;;240.98;30.15;;;;;;;;;;5011764;28;20040;-57
2022/12/04 05:12:27;;;;;;;192.68;25.48;;;;;;;;;;5011812;28;20498;-57
2022/12/04 05:14:54;;;;;;;139.10;19.42;;;;;;;;;;5011837;28;20052;-58
2022/12/04 05:17:21;;;;;;;102.68;14.60;;;;;;;;;;5011686;28;20121;-58
2022/12/04 05:19:54;;;;;;;80.55;12.38;;;;;;;;;;5011832;28;20493;-57
2022/12/04 05:22:24;;;;;;;60.17;9.75;;;;;;;;;;5011678;28;20053;-58
2022/12/04 05:24:51;;;;;;;54.58;6.70;;;;;;;;;;5011778;28;20100;-57
2022/12/04 05:27:18;;;;;;;32.30;4.65;;;;;;;;;;5011511;28;20518;-58
2022/12/04 05:29:46;;;;;;;35.15;3.80;;;;;;;;;;5011697;28;20026;-57
2022/12/04 05:32:13;;;;;;;16.13;2.65;;;;;;;;;;5014941;28;20033;-57
2022/12/04 05:34:40;;;;;;;21.08;2.88;;;;;;;;;;5015197;28;20030;-58
2022/12/04 05:37:07;;;;;;;21.25;2.28;;;;;;;;;;5015078;28;20531;-58
2022/12/04 05:39:34;;;;;;;18.60;2.80;;;;;;;;;;5014952;28;20029;-57
2022/12/04 05:42:01;;;;;;;13.82;2.35;;;;;;;;;;5014990;28;20113;-58
2022/12/04 05:44:28;;;;;;;8.10;1.92;;;;;;;;;;5014864;28;20128;-58
2022/12/04 05:46:55;;;;;;;16.88;2.28;;;;;;;;;;5014967;28;20034;-57
2022/12/04 05:49:22;;;;;;;18.10;2.33;;;;;;;;;;5014954;28;20538;-57
2022/12/04 05:51:50;;;;;;;10.95;1.83;;;;;;;;;;5014894;28;20115;-59
2022/12/04 05:54:17;;;;;;;14.13;2.00;;;;;;;;;;5014807;28;20435;-60
2022/12/04 05:56:45;;;;;;;18.08;2.63;;;;;;;;;;5014681;28;20101;-60
2022/12/04 05:59:12;;;;;;;26.98;3.45;;;;;;;;;;5014931;28;20041;-59
2022/12/04 06:01:39;;;;;;;29.20;3.13;;;;;;;;;;5019662;28;20029;-60
2022/12/04 06:04:06;;;;;;;36.05;4.65;;;;;;;;;;5034334;28;20460;-60
2022/12/04 06:06:33;;;;;;;32.17;3.85;;;;;;;;;;5033071;28;20026;-61
2022/12/04 06:09:00;;;;;;;39.58;3.75;;;;;;;;;;5034236;28;20025;-60
2022/12/04 06:11:28;;;;;;;36.90;3.38;;;;;;;;;;5034282;28;20029;-61
2022/12/04 06:13:55;;;;;;;32.45;3.78;;;;;;;;;;5034551;28;20037;-61
2022/12/04 06:16:24;;;;;;;29.40;3.58;;;;;;;;;;5034249;28;20479;-60
2022/12/04 06:18:52;;;;;;;14.88;2.63;;;;;;;;;;5034110;28;20116;-60
2022/12/04 06:21:20;;;;;;;17.80;2.20;;;;;;;;;;5033888;28;20037;-61
2022/12/04 06:23:47;;;;;;;25.15;3.28;;;;;;;;;;5034016;28;20045;-61
2022/12/04 06:26:14;;;;;;;36.83;3.42;;;;;;;;;;5033879;28;20121;-60
2022/12/04 06:28:41;;;;;;;23.63;3.28;;;;;;;;;;5033919;28;20021;-61
2022/12/04 06:31:09;;;;;;;20.02;2.33;;;;;;;;;;5170453;23;20030;31
2022/12/04 06:33:36;;;;;;;24.40;2.63;;;;;;;;;;5004911;28;19921;-49
2022/12/04 06:36:08;;;;;;;17.80;2.40;;;;;;;;;;5014043;28;20030;-48
2022/12/04 06:38:35;;;;;;;29.77;3.47;;;;;;;;;;5014096;28;20018;-47
2022/12/04 06:41:05;;;;;;;34.13;3.03;;;;;;;;;;5014011;28;20022;-49
2022/12/04 06:43:32;;;;;;;27.45;3.55;;;;;;;;;;5012838;28;20084;-48
2022/12/04 06:46:04;;;;;;;22.27;2.67;;;;;;;;;;5013847;28;20030;-50
2022/12/04 06:48:31;;;;;;;34.30;3.10;;;;;;;;;;5013891;28;20013;-48
2022/12/04 06:50:59;;;;;;;41.65;3.03;;;;;;;;;;5012450;28;20704;-49
2022/12/04 06:53:29;;;;;;;33.75;2.60;;;;;;;;;;5013624;28;20017;-50
2022/12/04 06:56:00;;;;;;;31.15;3.00;;;;;;;;;;5013509;28;20420;-48
2022/12/04 06:58:27;;;;;;;22.88;2.50;;;;;;;;;;5013653;28;20072;-49
2022/12/04 07:00:55;;;;;;;33.88;4.00;;;;;;;;;;5012235;28;20030;-49
2022/12/04 07:03:22;;;;;;;62.22;6.13;;;;;;;;;;5013372;28;20029;-47
2022/12/04 07:05:50;;;;;;;59.38;6.65;;;;;;;;;;5013381;28;20033;-50
2022/12/04 07:08:17;;;;;;;51.05;5.25;;;;;;;;;;5013455;28;20463;-48
2022/12/04 07:10:44;;;;;;;47.13;4.43;;;;;;;;;;5013371;28;20056;-48
2022/12/04 07:13:11;;;;;;;41.28;4.95;;;;;;;;;;5013311;28;20021;-50
2022/12/04 07:15:38;;;;;;;35.42;4.43;;;;;;;;;;5013363;28;20113;-50
2022/12/04 07:18:05;;;;;;;41.47;3.85;;;;;;;;;;5013199;28;20022;-50
2022/12/04 07:20:32;;;;;;;36.20;3.75;;;;;;;;;;5013218;28;20022;-48
2022/12/04 07:22:58;;;;;;;41.83;4.35;;;;;;;;;;5013035;28;20072;-51
2022/12/04 07:25:28;;;;;;;86.68;7.13;;;;;;;;;;5013052;28;20018;-49
2022/12/04 07:27:55;;;;;;;85.60;7.93;;;;;;;;;;5013000;28;20392;-47
2022/12/04 07:30:22;;;;;;;118.25;11.20;;;;;;;;;;5012965;28;20479;-48
2022/12/04 07:32:49;;;;;;;95.32;9.88;;;;;;;;;;5012613;28;20045;-48
2022/12/04 07:35:16;;;;;;;109.65;11.85;;;;;;;;;;5012996;28;20018;-49
2022/12/04 07:37:43;;;;;;;98.78;10.95;;;;;;;;;;5011718;28;20018;-49
2022/12/04 07:40:10;;;;;;;84.72;11.15;;;;;;;;;;5012862;28;20022;-49
2022/12/04 07:42:37;;;;;;;85.05;11.93;;;;;;;;;;5012636;28;20104;-48
2022/12/04 07:45:04;;;;;;;77.63;10.77;;;;;;;;;;5012762;28;20026;-48
2022/12/04 07:47:31;;;;;;;73.65;8.48;;;;;;;;;;5012769;28;20022;-48
2022/12/04 07:49:58;;;;;;;65.05;8.40;;;;;;;;;;5012735;28;20049;-47
2022/12/04 07:52:25;;;;;;;51.75;6.82;;;;;;;;;;5012544;28;20116;-47
2022/12/04 07:54:52;;;;;;;56.33;6.28;;;;;;;;;;5012245;28;20149;-48
2022/12/04 07:57:19;;;;;;;38.03;5.40;;;;;;;;;;5012595;28;20033;-48
2022/12/04 07:59:46;;;;;;;38.80;6.15;;;;;;;;;;5012605;28;20018;-48
2022/12/04 08:02:13;;;;;;;43.65;6.57;;;;;;;;;;5012419;28;20037;-48
2022/12/04 08:04:40;;;;;;;44.65;6.57;;;;;;;;;;5012419;28;20038;-49
2022/12/04 08:07:07;;;;;;;41.78;6.15;;;;;;;;;;5011101;28;20496;-48
2022/12/04 08:09:34;;;;;;;31.02;6.18;;;;;;;;;;5012603;28;20751;-49
2022/12/04 08:12:01;;;;;;;106.10;10.18;;;;;;;;;;5010946;28;20030;-53
2022/12/04 08:14:28;;;;;;;96.47;11.63;;;;;;;;;;5012288;28;20392;-49
2022/12/04 08:16:55;;;;;;;88.05;9.35;;;;;;;;;;4991279;28;20117;-50
2022/12/04 08:19:22;;;;;;;95.63;10.07;;;;;;;;;;4992381;28;20037;-51
2022/12/04 08:21:49;;;;;;;82.15;9.98;;;;;;;;;;4992264;28;20029;-53
2022/12/04 08:24:16;;;;;;;79.53;8.35;;;;;;;;;;4991906;28;20045;-53
2022/12/04 08:26:43;;;;;;;40.08;5.03;;;;;;;;;;4991834;28;20030;-53
2022/12/04 08:29:10;;;;;;;34.80;4.30;;;;;;;;;;5007390;28;20554;-53
2022/12/04 08:31:38;;;;;;;36.83;3.70;;;;;;;;;;4992306;28;20109;-52
2022/12/04 08:34:06;;;;;;;44.88;3.67;;;;;;;;;;4992375;28;20034;-52
2022/12/04 08:36:33;;;;;;;25.15;2.55;;;;;;;;;;4992375;28;20516;-50
2022/12/04 08:39:00;;;;;;;23.60;2.97;;;;;;;;;;4995994;28;20038;-55
2022/12/04 08:41:29;;;;;;;15.18;2.47;;;;;;;;;;5011873;28;20026;-52
2022/12/04 08:44:01;;;;;;;13.65;1.77;;;;;;;;;;5012003;28;20125;-53
2022/12/04 08:46:30;;;;;;;18.85;1.90;;;;;;;;;;5012089;28;20022;-53
2022/12/04 08:48:58;;;;;;;19.15;1.73;;;;;;;;;;5011926;28;20061;-53
2022/12/04 08:51:30;;;;;;;12.52;1.50;;;;;;;;;;5011757;28;20061;-53
2022/12/04 08:54:01;;;;;;;16.23;1.77;;;;;;;;;;5012015;28;20026;-53
2022/12/04 08:56:31;;;;;;;12.90;1.83;;;;;;;;;;5011817;28;20018;-50
2022/12/04 08:59:00;;;;;;;22.73;1.95;;;;;;;;;;5011143;28;20034;-50
2022/12/04 09:01:30;;;;;;;19.45;2.30;;;;;;;;;;5011846;28;20033;-52
2022/12/04 09:04:00;;;;;;;16.50;2.47;;;;;;;;;;5011703;28;20575;-55
2022/12/04 09:06:31;;;;;;;55.15;5.47;;;;;;;;;;5014229;28;20068;-53
2022/12/04 09:09:00;;;;;;;34.70;3.20;;;;;;;;;;5015560;28;20507;-50
2022/12/04 09:11:31;;;;;;;22.15;2.60;;;;;;;;;;5015599;28;20287;-50
2022/12/04 09:13:59;;;;;;;14.50;2.03;;;;;;;;;;5015388;28;20061;-49
2022/12/04 09:16:27;;;;;;;15.20;2.03;;;;;;;;;;5015541;28;20038;-54
2022/12/04 09:18:55;;;;;;;23.70;2.22;;;;;;;;;;5015299;28;20036;-51
2022/12/04 09:21:23;;;;;;;13.43;1.50;;;;;;;;;;5014827;28;20496;-51
2022/12/04 09:23:53;;;;;;;19.02;1.98;;;;;;;;;;5015179;28;20491;-50
2022/12/04 09:26:25;;;;;;;16.05;1.67;;;;;;;;;;5014033;28;20037;-49
2022/12/04 09:28:53;;;;;;;19.42;1.92;;;;;;;;;;5014937;28;20038;-49
2022/12/04 09:31:20;;;;;;;14.60;1.60;;;;;;;;;;5014295;28;20021;-51
2022/12/04 09:33:47;;;;;;;12.57;1.63;;;;;;;;;;5014740;28;20029;-53
2022/12/04 09:36:15;;;;;;;21.70;2.72;;;;;;;;;;5015112;28;20435;-50
2022/12/04 09:38:43;;;;;;;16.50;1.98;;;;;;;;;;5015043;28;20026;-51
2022/12/04 09:41:13;;;;;;;23.42;2.47;;;;;;;;;;5014940;28;20028;-49
2022/12/04 09:43:44;;;;;;;11.15;1.35;;;;;;;;;;5014848;28;20072;-49
2022/12/04 09:46:15;;;;;;;14.35;1.63;;;;;;;;;;5014964;28;20026;-50
2022/12/04 09:48:43;;;;;;;15.38;1.75;;;;;;;;;;5014899;28;20033;-51
2022/12/04 09:51:17;;;;;;;22.00;1.50;;;;;;;;;;5014638;28;20029;-52
2022/12/04 09:54:03;;;;;;;12.43;1.00;;;;;;;;;;5014412;28;20404;-51
2022/12/04 09:56:31;;;;;;;6.10;1.08;;;;;;;;;;5013321;28;20022;-51
2022/12/04 09:59:09;;;;;;;11.50;1.52;;;;;;;;;;5014748;28;20026;-52
2022/12/04 10:01:42;;;;;;;7.55;0.90;;;;;;;;;;5014600;28;20025;-49
2022/12/04 10:04:10;;;;;;;11.80;0.93;;;;;;;;;;5014447;28;20030;-52
2022/12/04 10:06:49;;;;;;;11.15;0.98;;;;;;;;;;5014564;28;20025;-53
2022/12/04 10:09:19;;;;;;;7.57;0.90;;;;;;;;;;5014516;28;20481;-50
2022/12/04 10:11:54;;;;;;;9.90;0.80;;;;;;;;;;5014266;28;20037;-54
2022/12/04 10:14:41;;;;;;;6.97;0.90;;;;;;;;;;5014392;28;20045;-49
2022/12/04 10:17:08;;;;;;;19.38;1.55;;;;;;;;;;5014100;28;20076;-54
2022/12/04 10:19:55;;;;;;;17.30;1.60;;;;;;;;;;5014298;28;20029;-50
2022/12/04 10:22:25;;;;;;;13.93;1.05;;;;;;;;;;5014173;28;20026;-53
2022/12/04 10:24:52;;;;;;;8.10;0.98;;;;;;;;;;5014240;28;20018;-48
2022/12/04 10:27:19;;;;;;;4.05;0.80;;;;;;;;;;5014243;28;20026;-51
2022/12/04 10:29:47;;;;;;;6.65;0.70;;;;;;;;;;5014032;28;20033;-49
2022/12/04 10:32:17;;;;;;;15.07;1.00;;;;;;;;;;5013767;28;20077;-50
2022/12/04 10:34:44;;;;;;;8.25;0.75;;;;;;;;;;5014161;28;20044;-50
2022/12/04 10:37:14;;;;;;;8.77;0.85;;;;;;;;;;5013993;28;20034;-49
2022/12/04 10:39:41;;;;;;;13.27;1.02;;;;;;;;;;5013976;28;20105;-51
2022/12/04 10:42:14;;;;;;;7.68;0.68;;;;;;;;;;5013828;28;20057;-52
2022/12/04 10:44:41;;;;;;;16.98;0.95;;;;;;;;;;5013779;28;20439;-50
2022/12/04 10:47:11;;;;;;;12.57;0.85;;;;;;;;;;5013842;28;20088;-49
2022/12/04 10:49:38;;;;;;;9.55;0.90;;;;;;;;;;5013702;28;20035;-50
2022/12/04 10:52:05;;;;;;;8.20;0.90;;;;;;;;;;5013663;28;20034;-51
2022/12/04 10:54:35;;;;;;;10.52;0.80;;;;;;;;;;5013663;28;20026;-50
2022/12/04 10:57:09;;;;;;;8.70;0.80;;;;;;;;;;5013701;28;20029;-52
2022/12/04 10:59:39;;;;;;;8.10;0.85;;;;;;;;;;5013625;28;20384;-52
2022/12/04 11:02:20;;;;;;;7.13;0.73;;;;;;;;;;5010538;28;20029;-50
2022/12/04 11:05:07;;;;;;;10.63;1.10;;;;;;;;;;4989818;28;20038;-48
2022/12/04 11:07:43;;;;;;;14.73;1.25;;;;;;;;;;4990036;28;20031;-48
2022/12/04 11:10:19;;;;;;;11.63;1.13;;;;;;;;;;4992459;28;20034;-48
2022/12/04 11:12:55;;;;;;;7.00;0.95;;;;;;;;;;4992344;28;20027;-48
2022/12/04 11:15:22;;;;;;;13.63;1.10;;;;;;;;;;4990917;28;20026;-48
2022/12/04 11:17:49;;;;;;;14.50;0.90;;;;;;;;;;4992245;28;20108;-49
2022/12/04 11:20:21;;;;;;;14.77;0.77;;;;;;;;;;4992357;28;20041;-48
2022/12/04 11:22:52;;;;;;;16.35;1.00;;;;;;;;;;4992067;28;20176;-49
2022/12/04 11:25:20;;;;;;;74.30;4.22;;;;;;;;;;4992296;28;20030;-54
2022/12/04 11:27:50;;;;;;;36.10;2.05;;;;;;;;;;4992012;28;20113;-49
2022/12/04 11:30:20;;;;;;;32.20;2.53;;;;;;;;;;4992661;28;20045;-54
2022/12/04 11:32:47;;;;;;;38.78;2.70;;;;;;;;;;4992381;28;20049;-52
2022/12/04 11:35:40;;;;;;;27.30;1.98;;;;;;;;;;4992558;28;20485;-49
2022/12/04 11:38:10;;;;;;;33.85;2.63;;;;;;;;;;4992150;28;20400;-48
2022/12/04 11:40:37;;;;;;;33.28;2.45;;;;;;;;;;4993249;28;20030;-50
2022/12/04 11:43:10;;;;;;;39.88;2.05;;;;;;;;;;4993026;28;20073;-50
2022/12/04 11:45:37;;;;;;;22.73;1.42;;;;;;;;;;4993234;28;20042;-48
2022/12/04 11:48:13;;;;;;;42.95;3.03;;;;;;;;;;4993239;28;20076;-49
2022/12/04 11:50:46;;;;;;;31.58;2.15;;;;;;;;;;4993025;28;20030;-50
2022/12/04 11:53:22;;;;;;;65.75;5.03;;;;;;;;;;4993086;28;20388;-50
2022/12/04 11:55:57;;;;;;;44.90;2.85;;;;;;;;;;5008020;28;20031;-49
2022/12/04 11:58:53;;;;;;;56.25;4.40;;;;;;;;;;4993004;28;20038;-49
2022/12/04 12:01:29;;;;;;;31.17;2.35;;;;;;;;;;4990647;28;20520;-49
2022/12/04 12:04:18;;;;;;;52.08;3.17;;;;;;;;;;4992802;28;20117;-49
2022/12/04 12:06:57;;;;;;;31.48;2.60;;;;;;;;;;4992894;28;20034;-50
2022/12/04 12:09:40;;;;;;;36.63;2.70;;;;;;;;;;4992956;28;20026;-52
2022/12/04 12:12:14;;;;;;;24.95;2.60;;;;;;;;;;4992801;28;20030;-49
2022/12/04 12:14:51;;;;;;;29.65;2.58;;;;;;;;;;4992868;28;20034;-50
2022/12/04 12:17:40;;;;;;;26.98;2.40;;;;;;;;;;4992719;28;20032;-51
2022/12/04 12:20:13;;;;;;;25.08;1.83;;;;;;;;;;4992805;28;20057;-50
2022/12/04 12:22:52;;;;;;;24.30;1.67;;;;;;;;;;4992559;28;20019;-49
2022/12/04 12:25:21;;;;;;;23.83;1.85;;;;;;;;;;4992723;28;20026;-50
2022/12/04 12:27:49;;;;;;;37.58;2.90;;;;;;;;;;4992644;28;20053;-50
2022/12/04 12:30:23;;;;;;;44.88;3.47;;;;;;;;;;4992537;28;20110;-49
2022/12/04 12:32:57;;;;;;;42.28;3.97;;;;;;;;;;4992334;28;20505;-49
2022/12/04 12:35:30;;;;;;;28.60;2.75;;;;;;;;;;4992478;28;20069;-48
2022/12/04 12:38:01;;;;;;;37.63;2.83;;;;;;;;;;4992553;28;20033;-49
2022/12/04 12:40:31;;;;;;;29.58;1.92;;;;;;;;;;4993463;28;20034;-49
2022/12/04 12:43:04;;;;;;;27.65;2.55;;;;;;;;;;4996442;28;20057;-48
2022/12/04 12:45:31;;;;;;;23.20;2.08;;;;;;;;;;4996524;28;20440;-49
2022/12/04 12:48:01;;;;;;;17.00;2.10;;;;;;;;;;4996398;28;20358;-52
2022/12/04 12:50:48;;;;;;;22.60;2.55;;;;;;;;;;4996453;28;20581;-50
2022/12/04 12:53:22;;;;;;;20.80;2.00;;;;;;;;;;4996319;28;20448;-49
2022/12/04 12:55:55;;;;;;;26.15;3.10;;;;;;;;;;4996409;28;20030;-49
2022/12/04 12:58:38;;;;;;;25.85;2.38;;;;;;;;;;4996383;28;20026;-49
2022/12/04 13:01:09;;;;;;;15.38;1.92;;;;;;;;;;4996176;28;20454;-50
2022/12/04 13:03:52;;;;;;;41.75;3.42;;;;;;;;;;4996106;28;20499;-52
2022/12/04 13:06:21;;;;;;;30.80;3.58;;;;;;;;;;4996057;28;20037;-49
2022/12/04 13:08:55;;;;;;;25.73;3.35;;;;;;;;;;4996205;28;20046;-52
2022/12/04 13:11:24;;;;;;;36.63;3.88;;;;;;;;;;4995973;28;20026;-50
2022/12/04 13:13:52;;;;;;;25.77;2.80;;;;;;;;;;4996051;28;20061;-49
2022/12/04 13:16:22;;;;;;;24.23;3.28;;;;;;;;;;4996002;28;20022;-49
2022/12/04 13:19:09;;;;;;;31.45;2.85;;;;;;;;;;4995956;28;20022;-49
2022/12/04 13:21:36;;;;;;;23.58;2.72;;;;;;;;;;4995193;28;20073;-50
2022/12/04 13:24:21;;;;;;;30.58;3.33;;;;;;;;;;4995699;28;20108;-49
2022/12/04 13:27:00;;;;;;;23.67;2.55;;;;;;;;;;4995847;28;20046;-50
2022/12/04 13:29:45;;;;;;;25.95;2.97;;;;;;;;;;5010800;28;20038;-50
2022/12/04 13:32:15;;;;;;;22.52;2.72;;;;;;;;;;4995426;28;20133;-51
2022/12/04 13:35:01;;;;;;;24.13;2.33;;;;;;;;;;4995671;28;20035;-51
2022/12/04 13:37:34;;;;;;;15.43;1.90;;;;;;;;;;4995672;28;20036;-50
2022/12/04 13:40:00;;;;;;;14.25;2.03;;;;;;;;;;4995532;28;20591;-49
2022/12/04 13:42:28;;;;;;;17.95;2.45;;;;;;;;;;4995303;28;20041;-54
2022/12/04 13:44:57;;;;;;;10.27;1.90;;;;;;;;;;4995505;28;20373;-49
2022/12/04 13:47:31;;;;;;;16.27;1.60;;;;;;;;;;4995526;28;20141;-49
2022/12/04 13:50:16;;;;;;;19.33;2.33;;;;;;;;;;4995393;28;20031;-54
2022/12/04 13:52:43;;;;;;;17.88;1.83;;;;;;;;;;4994538;28;20030;-50
2022/12/04 13:55:24;;;;;;;14.93;1.63;;;;;;;;;;4995324;28;20050;-51
2022/12/04 13:58:14;;;;;;;10.35;1.67;;;;;;;;;;4995211;28;20026;-51
2022/12/04 14:00:43;;;;;;;15.13;2.15;;;;;;;;;;4994624;28;20459;-50
2022/12/04 14:03:22;;;;;;;22.30;2.40;;;;;;;;;;4995069;28;20508;-51
2022/12/04 14:05:49;;;;;;;15.25;1.50;;;;;;;;;;4994620;28;20044;-48
2022/12/04 14:08:19;;;;;;;17.90;2.00;;;;;;;;;;4994754;28;20029;-54
2022/12/04 14:11:01;;;;;;;11.25;2.10;;;;;;;;;;4994885;28;20022;-48
2022/12/04 14:13:35;;;;;;;20.25;3.00;;;;;;;;;;4994796;28;20042;-50
2022/12/04 14:16:15;;;;;;;17.73;2.20;;;;;;;;;;4994902;28;20480;-51
2022/12/04 14:18:46;;;;;;;24.13;3.25;;;;;;;;;;4994651;28;20097;-54
2022/12/04 14:21:13;;;;;;;18.83;2.22;;;;;;;;;;4994819;28;20037;-53
2022/12/04 14:23:41;;;;;;;30.10;3.30;;;;;;;;;;4994556;28;20042;-51
2022/12/04 14:26:27;;;;;;;25.25;2.83;;;;;;;;;;4994698;28;20022;-51
2022/12/04 14:29:18;;;;;;;23.50;2.78;;;;;;;;;;4994602;28;20026;-50
2022/12/04 14:31:45;;;;;;;27.92;3.70;;;;;;;;;;4994249;28;20129;-53
2022/12/04 14:34:12;;;;;;;20.08;2.80;;;;;;;;;;4994289;28;20026;-51
2022/12/04 14:36:44;;;;;;;28.20;3.22;;;;;;;;;;5009448;28;20101;-54
2022/12/04 14:39:14;;;;;;;20.52;2.50;;;;;;;;;;4994426;28;20109;-51
2022/12/04 14:41:41;;;;;;;25.30;3.65;;;;;;;;;;4994030;28;20570;-52
2022/12/04 14:44:18;;;;;;;19.65;2.80;;;;;;;;;;4994328;28;20053;-51
2022/12/04 14:46:49;;;;;;;17.77;2.63;;;;;;;;;;4994261;28;20105;-49
2022/12/04 14:49:25;;;;;;;16.80;2.78;;;;;;;;;;4994166;28;20122;-51
2022/12/04 14:51:58;;;;;;;19.83;2.83;;;;;;;;;;4994155;28;20018;-53
2022/12/04 14:54:34;;;;;;;19.92;2.85;;;;;;;;;;4994126;28;20046;-49